createdAt,value
2023-05-13T00:00:39.352Z,16.58
2023-05-13T00:03:07.717Z,17.42
2023-05-13T00:05:36.330Z,17.58
2023-05-13T00:08:07.442Z,16.95
2023-05-13T00:10:36.927Z,18.98
2023-05-13T00:13:04.969Z,17.73
2023-05-13T00:15:33.334Z,18.67
2023-05-13T00:18:01.591Z,35.17
2023-05-13T00:20:29.764Z,15.23
2023-05-13T00:22:57.631Z,20.35
2023-05-13T00:25:27.756Z,14.32
2023-05-13T00:27:56.050Z,14.57
2023-05-13T00:30:24.299Z,20.52
2023-05-13T00:32:52.404Z,18.95
2023-05-13T00:35:20.539Z,18.35
2023-05-13T00:37:48.413Z,21.30
2023-05-13T00:40:22.303Z,19.88
2023-05-13T00:42:51.138Z,21.63
2023-05-13T00:45:19.408Z,19.30
2023-05-13T00:47:48.645Z,17.27
2023-05-13T00:50:16.758Z,20.98
2023-05-13T00:52:45.169Z,17.65
2023-05-13T00:55:13.420Z,18.35
2023-05-13T00:57:41.371Z,14.95
2023-05-13T01:00:10.947Z,16.75
2023-05-13T01:02:53.906Z,15.10
2023-05-13T01:05:52.280Z,16.38
2023-05-13T01:08:57.271Z,17.88
2023-05-13T01:11:30.366Z,18.92
2023-05-13T01:14:12.462Z,16.50
2023-05-13T01:17:17.663Z,15.85
2023-05-13T01:19:55.481Z,22.42
2023-05-13T01:22:23.414Z,21.88
2023-05-13T01:24:51.588Z,27.48
2023-05-13T01:27:21.617Z,21.27
2023-05-13T01:29:50.476Z,19.92
2023-05-13T01:32:24.789Z,21.92
2023-05-13T01:34:53.971Z,15.30
2023-05-13T01:37:23.081Z,18.10
2023-05-13T01:39:51.969Z,20.50
2023-05-13T01:42:20.738Z,17.33
2023-05-13T01:44:48.933Z,16.13
2023-05-13T01:47:17.308Z,18.85
2023-05-13T01:49:45.282Z,19.05
2023-05-13T01:52:13.424Z,22.38
2023-05-13T01:54:42.044Z,17.17
2023-05-13T01:57:14.059Z,18.48
2023-05-13T01:59:42.337Z,18.80
2023-05-13T02:02:10.608Z,20.05
2023-05-13T02:04:38.611Z,17.08
2023-05-13T02:07:07.075Z,21.23
2023-05-13T02:09:35.878Z,20.67
2023-05-13T02:12:07.332Z,23.98
2023-05-13T02:14:35.316Z,23.08
2023-05-13T02:17:03.825Z,21.92
2023-05-13T02:19:32.069Z,18.15
2023-05-13T02:22:00.825Z,21.17
2023-05-13T02:24:31.417Z,20.50
2023-05-13T02:27:00.017Z,23.48
2023-05-13T02:29:28.154Z,20.08
2023-05-13T02:31:56.675Z,22.48
2023-05-13T02:34:25.466Z,21.27
2023-05-13T02:36:54.788Z,24.52
2023-05-13T02:39:22.974Z,22.77
2023-05-13T02:41:50.959Z,22.65
2023-05-13T02:44:19.661Z,20.50
2023-05-13T02:46:47.818Z,21.70
2023-05-13T02:49:16.417Z,19.85
2023-05-13T02:51:44.453Z,23.50
2023-05-13T02:54:12.494Z,26.73
2023-05-13T02:56:41.209Z,22.73
2023-05-13T02:59:09.774Z,21.10
2023-05-13T03:01:38.663Z,21.95
2023-05-13T03:04:07.259Z,24.35
2023-05-13T03:06:35.212Z,19.52
2023-05-13T03:09:03.743Z,22.95
2023-05-13T03:11:31.939Z,24.65
2023-05-13T03:14:00.445Z,24.70
2023-05-13T03:16:47.164Z,24.45
2023-05-13T03:19:16.246Z,21.38
2023-05-13T03:21:45.220Z,19.98
2023-05-13T03:26:44.537Z,26.77
2023-05-13T03:29:12.601Z,28.70
2023-05-13T03:31:41.085Z,24.75
2023-05-13T03:34:09.259Z,23.95
2023-05-13T03:36:37.925Z,18.27
2023-05-13T03:39:06.803Z,23.38
2023-05-13T03:41:35.519Z,19.80
2023-05-13T03:44:04.183Z,19.00
2023-05-13T03:46:34.200Z,22.70
2023-05-13T03:49:02.330Z,20.75
2023-05-13T03:51:34.112Z,19.15
2023-05-13T03:54:03.618Z,16.85
2023-05-13T03:56:31.529Z,16.33
2023-05-13T03:59:00.732Z,17.40
2023-05-13T04:01:29.822Z,20.17
2023-05-13T04:03:57.707Z,15.70
2023-05-13T04:06:25.635Z,18.27
2023-05-13T04:08:53.777Z,19.00
2023-05-13T04:11:21.928Z,16.63
2023-05-13T04:13:50.013Z,16.15
2023-05-13T04:16:18.214Z,15.43
2023-05-13T04:18:46.489Z,18.00
2023-05-13T04:21:14.464Z,18.58
2023-05-13T04:23:42.507Z,16.90
2023-05-13T04:26:11.384Z,13.80
2023-05-13T04:28:39.723Z,16.33
2023-05-13T04:31:08.061Z,19.63
2023-05-13T04:33:37.631Z,15.52
2023-05-13T04:36:06.923Z,17.92
2023-05-13T04:38:35.847Z,12.15
2023-05-13T04:41:05.179Z,14.80
2023-05-13T04:43:41.100Z,16.05
2023-05-13T04:46:09.178Z,17.08
2023-05-13T04:48:38.125Z,13.50
2023-05-13T04:51:06.761Z,15.07
2023-05-13T04:53:35.456Z,16.88
2023-05-13T04:56:06.864Z,14.05
2023-05-13T04:58:35.527Z,16.15
2023-05-13T05:01:03.663Z,14.13
2023-05-13T05:03:34.326Z,11.70
2023-05-13T05:06:02.674Z,15.02
2023-05-13T05:08:31.482Z,11.32
2023-05-13T05:11:01.802Z,13.75
2023-05-13T05:13:32.294Z,15.43
2023-05-13T05:16:00.535Z,12.80
2023-05-13T05:18:28.896Z,12.63
2023-05-13T05:20:57.029Z,12.35
2023-05-13T05:23:25.215Z,11.75
2023-05-13T05:26:04.142Z,12.68
2023-05-13T05:28:40.221Z,13.63
2023-05-13T05:31:09.897Z,20.70
2023-05-13T05:33:39.339Z,12.85
2023-05-13T05:36:08.365Z,14.23
2023-05-13T05:38:36.655Z,12.32
2023-05-13T05:41:04.969Z,12.98
2023-05-13T05:43:32.909Z,12.43
2023-05-13T05:46:00.742Z,16.20
2023-05-13T05:48:28.919Z,12.63
2023-05-13T05:50:57.497Z,8.43
2023-05-13T05:53:34.023Z,11.60
2023-05-13T05:56:03.942Z,11.88
2023-05-13T05:58:32.897Z,13.48
2023-05-13T06:01:01.430Z,11.93
2023-05-13T06:03:29.695Z,12.63
2023-05-13T06:05:57.843Z,12.45
2023-05-13T06:08:30.149Z,14.05
2023-05-13T06:10:59.152Z,11.57
2023-05-13T06:13:27.524Z,13.13
2023-05-13T06:15:56.517Z,12.27
2023-05-13T06:18:27.554Z,12.70
2023-05-13T06:20:55.907Z,11.60
2023-05-13T06:23:23.832Z,10.98
2023-05-13T06:25:53.046Z,11.27
2023-05-13T06:28:20.936Z,9.90
2023-05-13T06:30:51.955Z,9.40
2023-05-13T06:33:20.279Z,7.68
2023-05-13T06:35:50.566Z,10.90
2023-05-13T06:38:21.455Z,11.35
2023-05-13T06:40:51.449Z,7.00
2023-05-13T06:43:21.994Z,9.90
2023-05-13T06:45:57.294Z,9.48
2023-05-13T06:48:27.141Z,10.10
2023-05-13T06:50:55.175Z,11.68
2023-05-13T06:53:23.545Z,12.13
2023-05-13T06:55:51.762Z,10.75
2023-05-13T06:58:20.338Z,9.05
2023-05-13T07:00:48.273Z,8.25
2023-05-13T07:03:17.844Z,7.30
2023-05-13T07:05:46.362Z,8.27
2023-05-13T07:08:18.036Z,9.23
2023-05-13T07:10:46.313Z,4.88
2023-05-13T07:13:14.490Z,7.80
2023-05-13T07:15:43.004Z,6.07
2023-05-13T07:18:11.222Z,8.35
2023-05-13T07:20:39.212Z,6.38
2023-05-13T07:23:07.595Z,6.95
2023-05-13T07:25:35.822Z,8.32
2023-05-13T07:28:04.554Z,5.57
2023-05-13T07:30:32.564Z,7.47
2023-05-13T07:33:01.654Z,3.92
2023-05-13T07:35:29.823Z,5.55
2023-05-13T07:37:57.859Z,6.88
2023-05-13T07:40:26.183Z,4.47
2023-05-13T07:42:54.007Z,5.47
2023-05-13T07:45:22.511Z,8.20
2023-05-13T07:47:50.904Z,9.63
2023-05-13T07:50:18.999Z,4.90
2023-05-13T07:52:49.132Z,12.55
2023-05-13T07:55:17.524Z,6.35
2023-05-13T07:57:46.033Z,4.40
2023-05-13T08:00:16.351Z,6.35
2023-05-13T08:02:45.245Z,6.68
2023-05-13T08:05:13.856Z,7.13
2023-05-13T08:07:42.168Z,6.22
2023-05-13T08:10:11.003Z,8.30
2023-05-13T08:12:40.704Z,8.93
2023-05-13T08:15:09.570Z,14.38
2023-05-13T08:17:37.695Z,6.75
2023-05-13T08:20:06.765Z,7.32
2023-05-13T08:22:35.068Z,6.15
2023-05-13T08:25:03.732Z,8.15
2023-05-13T08:27:32.034Z,8.18
2023-05-13T08:30:00.107Z,9.25
2023-05-13T08:32:28.010Z,8.68
2023-05-13T08:34:56.634Z,19.08
2023-05-13T08:37:24.999Z,11.30
2023-05-13T08:39:53.296Z,8.18
2023-05-13T08:42:23.750Z,6.30
2023-05-13T08:44:53.547Z,7.32
2023-05-13T08:47:40.901Z,12.25
2023-05-13T08:50:10.598Z,8.52
2023-05-13T08:52:39.489Z,18.38
2023-05-13T08:55:09.254Z,8.38
2023-05-13T08:57:37.419Z,6.45
2023-05-13T09:00:06.515Z,5.55
2023-05-13T09:02:35.442Z,10.18
2023-05-13T09:05:07.589Z,7.90
2023-05-13T09:07:38.095Z,7.63
2023-05-13T09:10:08.243Z,11.07
2023-05-13T09:12:51.899Z,6.72
2023-05-13T09:15:27.642Z,4.72
2023-05-13T09:18:05.046Z,6.93
2023-05-13T09:20:34.623Z,5.47
2023-05-13T09:23:06.758Z,3.88
2023-05-13T09:25:35.296Z,6.10
2023-05-13T09:28:05.963Z,8.50
2023-05-13T09:30:43.348Z,5.57
2023-05-13T09:33:16.352Z,6.07
2023-05-13T09:35:54.887Z,6.25
2023-05-13T09:38:26.948Z,6.05
2023-05-13T09:41:03.611Z,7.03
2023-05-13T09:43:34.746Z,6.53
2023-05-13T09:46:05.306Z,6.78
2023-05-13T09:48:35.082Z,7.17
2023-05-13T09:51:04.163Z,6.15
2023-05-13T09:53:32.386Z,5.72
2023-05-13T09:56:01.807Z,4.55
2023-05-13T09:58:31.044Z,10.95
2023-05-13T10:00:59.837Z,4.28
2023-05-13T10:03:30.049Z,2.35
2023-05-13T10:06:02.304Z,4.38
2023-05-13T10:08:31.631Z,4.38
2023-05-13T10:11:00.646Z,4.97
2023-05-13T10:13:32.519Z,5.85
2023-05-13T10:16:00.696Z,5.25
2023-05-13T10:18:29.374Z,4.55
2023-05-13T10:20:57.657Z,8.60
2023-05-13T10:23:26.820Z,9.50
2023-05-13T10:25:56.626Z,7.88
2023-05-13T10:28:26.618Z,8.35
2023-05-13T10:30:54.785Z,4.57
2023-05-13T10:33:23.247Z,4.07
2023-05-13T10:35:56.992Z,5.82
2023-05-13T10:39:05.034Z,3.50
2023-05-13T10:42:16.884Z,3.28
2023-05-13T10:44:45.058Z,5.13
2023-05-13T10:47:13.621Z,3.55
2023-05-13T10:49:50.044Z,3.90
2023-05-13T10:52:19.130Z,8.05
2023-05-13T10:55:02.451Z,2.88
2023-05-13T10:57:38.616Z,3.75
2023-05-13T11:00:16.375Z,4.63
2023-05-13T11:02:45.007Z,5.40
2023-05-13T11:05:21.423Z,7.15
2023-05-13T11:07:57.051Z,5.32
2023-05-13T11:10:32.798Z,2.75
2023-05-13T11:13:15.313Z,6.35
2023-05-13T11:15:50.850Z,8.85
2023-05-13T11:18:20.819Z,6.15
2023-05-13T11:20:53.965Z,3.90
2023-05-13T11:23:22.593Z,6.28
2023-05-13T11:26:12.661Z,4.95
2023-05-13T11:29:04.187Z,3.13
2023-05-13T11:31:54.070Z,4.43
2023-05-13T11:34:22.849Z,3.70
2023-05-13T11:37:12.288Z,5.95
2023-05-13T11:39:41.733Z,8.00
2023-05-13T11:42:11.613Z,5.35
2023-05-13T11:44:47.181Z,5.55
2023-05-13T11:47:25.353Z,4.93
2023-05-13T11:49:53.574Z,2.95
2023-05-13T11:52:21.715Z,4.90
2023-05-13T11:54:57.917Z,6.47
2023-05-13T11:57:27.821Z,8.63
2023-05-13T12:00:00.378Z,4.32
2023-05-13T12:02:31.648Z,3.70
2023-05-13T12:05:05.470Z,5.88
2023-05-13T12:07:34.752Z,4.18
2023-05-13T12:10:05.368Z,6.70
2023-05-13T12:12:38.699Z,3.13
2023-05-13T12:15:16.041Z,3.45
2023-05-13T12:17:45.523Z,4.35
2023-05-13T12:20:20.866Z,6.13
2023-05-13T12:22:48.837Z,6.15
2023-05-13T12:25:39.413Z,3.08
2023-05-13T12:28:21.201Z,5.27
2023-05-13T12:31:06.025Z,3.83
2023-05-13T12:33:43.483Z,4.32
2023-05-13T12:36:28.195Z,4.47
2023-05-13T12:39:11.081Z,4.55
2023-05-13T12:41:42.933Z,5.43
2023-05-13T12:44:16.133Z,6.05
2023-05-13T12:46:57.603Z,5.85
2023-05-13T12:49:26.456Z,6.10
2023-05-13T12:51:56.913Z,5.32
2023-05-13T12:54:24.803Z,6.40
2023-05-13T12:56:52.926Z,7.53
2023-05-13T12:59:20.885Z,5.88
2023-05-13T13:01:50.633Z,7.05
2023-05-13T13:04:19.238Z,6.78
2023-05-13T13:06:47.536Z,5.80
2023-05-13T13:09:20.977Z,8.10
2023-05-13T13:11:50.049Z,7.00
2023-05-13T13:14:18.061Z,4.65
2023-05-13T13:16:46.955Z,8.30
2023-05-13T13:19:15.114Z,7.80
2023-05-13T13:21:43.071Z,5.35
2023-05-13T13:24:11.124Z,7.55
2023-05-13T13:26:39.247Z,9.00
2023-05-13T13:29:07.220Z,4.97
2023-05-13T13:31:35.417Z,10.38
2023-05-13T13:34:05.028Z,12.23
2023-05-13T13:36:33.005Z,10.25
2023-05-13T13:39:01.018Z,6.05
2023-05-13T13:41:29.313Z,7.60
2023-05-13T13:43:57.179Z,5.72
2023-05-13T13:46:25.187Z,4.95
2023-05-13T13:48:53.598Z,4.78
2023-05-13T13:51:22.077Z,10.00
2023-05-13T13:53:50.850Z,5.97
2023-05-13T13:56:20.167Z,6.45
2023-05-13T13:58:48.348Z,8.68
2023-05-13T14:01:16.592Z,7.75
2023-05-13T14:03:45.110Z,5.25
2023-05-13T14:06:13.147Z,5.50
2023-05-13T14:08:41.180Z,10.05
2023-05-13T14:11:09.412Z,9.18
2023-05-13T14:13:37.403Z,8.13
2023-05-13T14:16:06.622Z,9.23
2023-05-13T14:18:34.858Z,8.82
2023-05-13T14:21:04.094Z,11.15
2023-05-13T14:23:32.153Z,7.88
2023-05-13T14:26:01.942Z,5.72
2023-05-13T14:28:29.884Z,8.95
2023-05-13T14:30:57.786Z,6.60
2023-05-13T14:33:26.243Z,8.00
2023-05-13T14:35:54.254Z,11.82
2023-05-13T14:38:22.339Z,10.98
2023-05-13T14:40:50.644Z,9.63
2023-05-13T14:43:18.709Z,8.52
2023-05-13T14:45:46.822Z,11.40
2023-05-13T14:48:16.474Z,6.82
2023-05-13T14:50:46.459Z,9.65
2023-05-13T14:53:14.467Z,8.30
2023-05-13T14:55:42.459Z,11.48
2023-05-13T14:58:10.482Z,10.77
2023-05-13T15:00:38.965Z,5.65
2023-05-13T15:03:07.317Z,4.95
2023-05-13T15:05:35.464Z,8.63
2023-05-13T15:08:03.544Z,13.18
2023-05-13T15:10:31.871Z,11.10
2023-05-13T15:12:59.919Z,11.55
2023-05-13T15:15:27.918Z,11.77
2023-05-13T15:17:55.904Z,13.93
2023-05-13T15:20:24.092Z,11.27
2023-05-13T15:22:52.406Z,13.75
2023-05-13T15:25:20.654Z,13.30
2023-05-13T15:27:50.064Z,11.23
2023-05-13T15:30:18.089Z,11.00
2023-05-13T15:32:46.316Z,17.80
2023-05-13T15:35:17.356Z,15.80
2023-05-13T15:37:45.760Z,13.50
2023-05-13T15:40:14.675Z,12.48
2023-05-13T15:42:42.510Z,15.65
2023-05-13T15:45:10.721Z,15.90
2023-05-13T15:47:39.505Z,14.38
2023-05-13T15:50:09.687Z,12.38
2023-05-13T15:52:38.534Z,18.25
2023-05-13T15:55:07.122Z,12.65
2023-05-13T15:57:35.655Z,17.05
2023-05-13T16:00:04.456Z,14.65
2023-05-13T16:02:39.164Z,14.35
2023-05-13T16:05:08.311Z,14.38
2023-05-13T16:07:36.517Z,16.15
2023-05-13T16:10:05.516Z,15.63
2023-05-13T16:12:33.600Z,21.65
2023-05-13T16:15:01.896Z,14.98
2023-05-13T16:17:29.994Z,14.00
2023-05-13T16:19:57.980Z,18.70
2023-05-13T16:22:37.846Z,26.05
2023-05-13T16:25:08.625Z,35.03
2023-05-13T16:27:41.299Z,29.10
2023-05-13T16:30:10.627Z,24.20
2023-05-13T16:32:39.621Z,22.35
2023-05-13T16:35:12.159Z,25.15
2023-05-13T16:37:40.383Z,26.40
2023-05-13T16:40:09.342Z,25.90
2023-05-13T16:42:37.543Z,25.63
2023-05-13T16:45:07.650Z,29.25
2023-05-13T16:47:36.281Z,30.58
2023-05-13T16:50:05.085Z,31.60
2023-05-13T16:52:34.299Z,36.47
2023-05-13T16:55:02.585Z,35.50
2023-05-13T16:57:30.677Z,37.38
2023-05-13T16:59:59.516Z,31.10
2023-05-13T17:02:27.856Z,26.90
2023-05-13T17:04:56.647Z,35.03
2023-05-13T17:07:25.143Z,38.83
2023-05-13T17:09:53.308Z,45.20
2023-05-13T17:12:22.141Z,51.35
2023-05-13T17:14:50.246Z,42.50
2023-05-13T17:17:18.477Z,37.83
2023-05-13T17:19:46.499Z,41.58
2023-05-13T17:22:14.484Z,47.97
2023-05-13T17:24:43.340Z,101.57
2023-05-13T17:27:11.595Z,92.07
2023-05-13T17:29:39.680Z,84.15
2023-05-13T17:32:07.994Z,62.72
2023-05-13T17:34:36.508Z,66.05
2023-05-13T17:37:05.144Z,75.13
2023-05-13T17:39:33.562Z,71.90
2023-05-13T17:42:01.887Z,61.85
2023-05-13T17:44:30.171Z,66.03
2023-05-13T17:46:59.244Z,76.25
2023-05-13T17:49:27.920Z,63.92
2023-05-13T17:51:56.469Z,66.00
2023-05-13T17:54:24.880Z,55.38
2023-05-13T17:56:53.850Z,55.42
2023-05-13T17:59:22.637Z,49.22
2023-05-13T18:01:51.119Z,44.45
2023-05-13T18:04:19.433Z,53.15
2023-05-13T18:06:47.890Z,56.15
2023-05-13T18:09:16.590Z,57.85
2023-05-13T18:11:46.346Z,57.08
2023-05-13T18:14:15.351Z,47.38
2023-05-13T18:16:44.420Z,50.33
2023-05-13T18:19:13.106Z,41.28
2023-05-13T18:21:41.722Z,34.20
2023-05-13T18:24:09.957Z,35.78
2023-05-13T18:26:38.233Z,36.33
2023-05-13T18:29:07.033Z,38.67
2023-05-13T18:31:35.485Z,38.65
2023-05-13T18:34:04.141Z,33.08
2023-05-13T18:36:33.136Z,34.88
2023-05-13T18:39:01.517Z,36.50
2023-05-13T18:41:32.579Z,35.47
2023-05-13T18:44:01.692Z,36.20
2023-05-13T18:46:29.810Z,44.65
2023-05-13T18:49:04.688Z,56.08
2023-05-13T18:51:34.814Z,43.20
2023-05-13T18:54:05.667Z,37.45
2023-05-13T18:56:34.216Z,38.35
2023-05-13T18:59:02.798Z,41.28
2023-05-13T19:01:31.343Z,37.22
2023-05-13T19:04:00.853Z,38.63
2023-05-13T19:06:31.002Z,44.83
2023-05-13T19:08:59.038Z,35.97
2023-05-13T19:11:27.734Z,38.53
2023-05-13T19:13:58.371Z,34.80
2023-05-13T19:16:27.366Z,34.97
2023-05-13T19:18:55.622Z,40.88
2023-05-13T19:21:24.947Z,40.38
2023-05-13T19:23:53.797Z,45.88
2023-05-13T19:26:22.789Z,39.65
2023-05-13T19:28:51.580Z,43.70
2023-05-13T19:31:22.145Z,49.38
2023-05-13T19:33:50.352Z,37.10
2023-05-13T19:36:19.391Z,37.33
2023-05-13T19:38:50.144Z,58.05
2023-05-13T19:41:19.233Z,40.33
2023-05-13T19:43:47.853Z,40.28
2023-05-13T19:46:16.307Z,44.47
2023-05-13T19:48:44.457Z,40.60
2023-05-13T19:51:12.962Z,39.70
2023-05-13T19:53:44.827Z,38.13
2023-05-13T19:56:13.142Z,41.17
2023-05-13T19:58:41.316Z,37.65
2023-05-13T20:01:11.939Z,48.88
2023-05-13T20:03:40.264Z,58.07
2023-05-13T20:06:08.704Z,60.67
2023-05-13T20:08:38.539Z,45.42
2023-05-13T20:11:06.573Z,43.60
2023-05-13T20:13:34.846Z,45.47
2023-05-13T20:16:03.086Z,64.97
2023-05-13T20:18:31.759Z,42.55
2023-05-13T20:21:00.246Z,65.47
2023-05-13T20:23:28.760Z,54.03
2023-05-13T20:25:57.474Z,99.28
2023-05-13T20:28:25.801Z,70.15
2023-05-13T20:30:53.840Z,80.68
2023-05-13T20:33:22.040Z,71.45
2023-05-13T20:35:50.060Z,59.63
2023-05-13T20:38:18.301Z,59.22
2023-05-13T20:40:47.345Z,50.35
2023-05-13T20:43:17.235Z,48.05
2023-05-13T20:45:45.746Z,44.67
2023-05-13T20:48:13.773Z,46.25
2023-05-13T20:50:42.036Z,51.45
2023-05-13T20:53:10.061Z,44.15
2023-05-13T20:55:38.077Z,54.83
2023-05-13T20:58:06.303Z,54.92
2023-05-13T21:00:34.577Z,46.92
2023-05-13T21:03:02.984Z,55.85
2023-05-13T21:05:31.307Z,58.90
2023-05-13T21:07:59.631Z,50.42
2023-05-13T21:10:27.677Z,57.65
2023-05-13T21:12:56.378Z,62.17
2023-05-13T21:15:24.834Z,49.45
2023-05-13T21:17:53.142Z,52.78
2023-05-13T21:20:22.323Z,56.92
2023-05-13T21:22:50.773Z,53.50
2023-05-13T21:25:19.278Z,47.63
2023-05-13T21:27:48.673Z,53.15
2023-05-13T21:30:16.585Z,85.00
2023-05-13T21:32:44.805Z,58.15
2023-05-13T21:35:13.602Z,54.55
2023-05-13T21:37:41.600Z,50.60
2023-05-13T21:40:10.352Z,50.25
2023-05-13T21:42:38.515Z,54.83
2023-05-13T21:45:07.353Z,54.60
2023-05-13T21:47:35.430Z,48.60
2023-05-13T21:50:03.874Z,54.92
2023-05-13T21:52:31.755Z,57.35
2023-05-13T21:55:00.023Z,64.70
2023-05-13T21:57:28.728Z,52.60
2023-05-13T21:59:57.403Z,51.70
2023-05-13T22:02:25.612Z,59.78
2023-05-13T22:04:53.740Z,52.17
2023-05-13T22:07:21.790Z,39.67
2023-05-13T22:09:50.546Z,49.35
2023-05-13T22:12:18.614Z,50.90
2023-05-13T22:14:46.556Z,51.72
2023-05-13T22:17:14.822Z,52.83
2023-05-13T22:19:42.848Z,54.10
2023-05-13T22:22:10.983Z,50.85
2023-05-13T22:24:39.183Z,49.90
2023-05-13T22:27:07.179Z,51.58
2023-05-13T22:29:35.914Z,51.28
2023-05-13T22:32:04.153Z,45.22
2023-05-13T22:34:33.461Z,50.97
2023-05-13T22:37:01.940Z,44.28
2023-05-13T22:39:29.907Z,44.97
2023-05-13T22:41:59.188Z,41.50
2023-05-13T22:44:27.053Z,44.97
2023-05-13T22:46:55.178Z,48.40
2023-05-13T22:49:23.273Z,40.67
2023-05-13T22:51:51.284Z,43.13
2023-05-13T22:54:19.282Z,48.95
2023-05-13T22:56:47.141Z,46.95
2023-05-13T22:59:15.019Z,45.30
2023-05-13T23:01:43.173Z,42.45
2023-05-13T23:04:11.230Z,43.47
2023-05-13T23:06:39.276Z,42.47
2023-05-13T23:09:07.862Z,43.63
2023-05-13T23:11:38.935Z,42.10
2023-05-13T23:14:06.811Z,43.70
2023-05-13T23:16:36.280Z,41.03
2023-05-13T23:19:04.501Z,43.17
2023-05-13T23:21:32.754Z,44.45
2023-05-13T23:24:00.856Z,41.17
2023-05-13T23:26:28.722Z,43.08
2023-05-13T23:28:56.906Z,41.55
2023-05-13T23:31:25.065Z,48.65
2023-05-13T23:33:53.031Z,39.95
2023-05-13T23:36:20.907Z,43.17
2023-05-13T23:38:50.779Z,49.63
2023-05-13T23:41:18.719Z,43.45
2023-05-13T23:43:46.619Z,44.35
2023-05-13T23:46:14.573Z,46.45
2023-05-13T23:48:42.615Z,43.58
2023-05-13T23:51:10.636Z,37.22
2023-05-13T23:53:38.616Z,41.63
2023-05-13T23:56:06.829Z,38.35
2023-05-13T23:58:34.876Z,43.88
